x

Folly Island, Sc (fbis1) Weather Station

11:00am - Thu 30th Jul 2015 All times are EDT. -4 hours from GMT.

  • Wind
    7mph
  • Air Temp 83°f
  • Sea Pressure 1014.9mb
  • Folly Island, Sc
  • Folly Island, Sc

More Historic Weather Station data

Upgrade to MSW Pro to gain access to the past 30 days of data for over 8000 Wavebouys and Weather Stations around the globe.

Join Pro

Comparision Forecast

View Surf forecast
   
Thu 07/30 11:00am 7
mph
1014.9mb 83f
10:00am 6 7 mph 1014.8mb 84f
9:00am 7 8 mph 1014.3mb 81f
8:00am 7 8 mph 1014mb 79f
7:00am 3 5 mph 1013.8mb 78f
6:00am 6 8 mph 1013.2mb 78f
5:00am 5 7 mph 1013.2mb 78f
4:00am 3 6 mph 1013.7mb 78f
3:00am 3 5 mph 1014mb 79f
2:00am 1 2 mph 1014.7mb 81f
1:00am 2 3 mph 1015mb 82f
12:00am 7 8 mph 1014.7mb 82f
Wed 07/29 11:00pm 9 10 mph 1014.6mb 82f
10:00pm 10 11 mph 1014.6mb 82f
9:00pm 9 10 mph 1014.4mb 82f
8:00pm 14 15 mph 1013.9mb 82f
7:00pm 17 21 mph 1013.6mb 82f
6:00pm 18 22 mph 1013.5mb 82f
5:00pm 14 16 mph 1013.5mb 84f
4:00pm 14 15 mph 1013.7mb 84f
3:00pm 13 14 mph 1014.6mb 85f
2:00pm 11 13 mph 1014.9mb 85f
1:00pm 11 13 mph 1015.5mb 85f
11:00am 8 10 mph 1016mb 84f
10:00am 9 11 mph 1015.5mb 83f
9:00am 8 9 mph 1015.3mb 81f
8:00am 7 9 mph 1015mb 80f
7:00am 9 10 mph 1014.7mb 78f
6:00am 9 10 mph 1014mb 78f
5:00am 9 10 mph 1013.6mb 81f
4:00am 9 10 mph 1013.6mb 81f
3:00am 10 11 mph 1014mb 81f
2:00am 8 9 mph 1014.5mb 81f
1:00am 11 13 mph 1014.8mb 82f
12:00am 13 14 mph 1014.9mb 82f
Tue 07/28 11:00pm 11 14 mph 1015.4mb 82f
10:00pm 13 15 mph 1014.9mb 82f
9:00pm 13 15 mph 1014.7mb 82f
8:00pm 13 15 mph 1014.6mb 82f
7:00pm 14 15 mph 1014.2mb 82f
6:00pm 16 17 mph 1014.2mb 82f
5:00pm 14 15 mph 1014.4mb 83f
4:00pm 15 16 mph 1014.6mb 84f
3:00pm 11 14 mph 1015.1mb 85f
2:00pm 14 15 mph 1015.7mb 85f
1:00pm 15 17 mph 1016mb 85f
12:00pm 15 18 mph 1016mb 85f
11:00am 13 16 mph 1015.9mb 84f
10:00am 13 14 mph 1015.6mb 83f
9:00am 8 9 mph 1015.3mb 82f
8:00am 9 10 mph 1015.1mb 81f
7:00am 13 15 mph 1014.3mb 81f
6:00am 11 13 mph 1014mb 80f
5:00am 8 10 mph 1013.7mb 80f
4:00am 9 10 mph 1013.8mb 81f
3:00am 6 7 mph 1014.2mb 81f
2:00am 7 8 mph 1014.6mb 81f
1:00am 7 8 mph 1014.6mb 82f
12:00am 7 9 mph 1014.7mb 82f
Mon 07/27 11:00pm 9 11 mph 1014.9mb 82f
10:00pm 11
mph
1014.6mb 82f
9:00pm 14 15 mph 1014.3mb 82f
8:00pm 11 14 mph 1014.3mb 83f
7:00pm 11 14 mph 1014.1mb 83f
6:00pm 15 16 mph 1014mb 84f
5:00pm 13 15 mph 1014.1mb 83f
4:00pm 14 15 mph 1014.1mb 83f
3:00pm 10 13 mph 1014.5mb 86f
2:00pm 13 15 mph 1014.8mb 85f
1:00pm 13 14 mph 1015.1mb 84f
12:00pm 11 13 mph 1015.5mb 84f
11:00am 9 10 mph 1015.3mb 84f
10:00am 9 10 mph 1015.4mb 82f
9:00am 7 8 mph 1014.9mb 81f
8:00am 8 9 mph 1014.2mb 80f
7:00am 9 11 mph 1014.2mb 79f
6:00am 7 8 mph 1013.5mb 80f
5:00am 8 9 mph 1013.2mb 80f
4:00am 7 8 mph 1013.3mb 79f
3:00am 7 9 mph 1013.5mb 80f
2:00am 9 10 mph 1014mb 81f
1:00am 11 14 mph 1014.2mb 81f
12:00am 11 14 mph 1014.6mb 81f
Sun 07/26 11:00pm 14 15 mph 1014.7mb 81f
10:00pm 14 16 mph 1014.4mb 81f
9:00pm 14 15 mph 1014.2mb 82f
8:00pm 14 16 mph 1014.3mb 82f
7:00pm 15 17 mph 1014.3mb 83f
6:00pm 16 18 mph 1014.1mb 82f
5:00pm 18 22 mph 1014.1mb 83f